sensor_id;sensor_type;location;lat;lon;timestamp;P1;durP1;ratioP1;P2;durP2;ratioP2
10343;SDS011;5217;43.960;10.954;2023-06-24T00:00:08;3.30;;;3.00;;
10343;SDS011;5217;43.960;10.954;2023-06-24T00:02:38;7.03;;;3.58;;
10343;SDS011;5217;43.960;10.954;2023-06-24T00:05:10;4.20;;;3.10;;
10343;SDS011;5217;43.960;10.954;2023-06-24T00:07:39;5.10;;;3.40;;
10343;SDS011;5217;43.960;10.954;2023-06-24T00:10:13;5.57;;;3.33;;
10343;SDS011;5217;43.960;10.954;2023-06-24T00:12:44;4.05;;;3.13;;
10343;SDS011;5217;43.960;10.954;2023-06-24T00:15:12;5.60;;;3.05;;
10343;SDS011;5217;43.960;10.954;2023-06-24T00:17:41;3.97;;;3.17;;
10343;SDS011;5217;43.960;10.954;2023-06-24T00:20:10;3.72;;;2.80;;
10343;SDS011;5217;43.960;10.954;2023-06-24T00:22:41;3.60;;;3.25;;
10343;SDS011;5217;43.960;10.954;2023-06-24T00:25:11;3.67;;;3.30;;
10343;SDS011;5217;43.960;10.954;2023-06-24T00:27:41;3.70;;;3.30;;
10343;SDS011;5217;43.960;10.954;2023-06-24T00:30:10;3.65;;;3.08;;
10343;SDS011;5217;43.960;10.954;2023-06-24T00:32:39;3.30;;;3.00;;
10343;SDS011;5217;43.960;10.954;2023-06-24T00:35:09;3.47;;;3.17;;
10343;SDS011;5217;43.960;10.954;2023-06-24T00:37:38;6.10;;;3.25;;
10343;SDS011;5217;43.960;10.954;2023-06-24T00:40:07;4.20;;;3.40;;
10343;SDS011;5217;43.960;10.954;2023-06-24T00:42:44;4.30;;;3.17;;
10343;SDS011;5217;43.960;10.954;2023-06-24T00:45:13;4.80;;;3.67;;
10343;SDS011;5217;43.960;10.954;2023-06-24T00:47:43;4.32;;;3.22;;
10343;SDS011;5217;43.960;10.954;2023-06-24T00:50:12;4.15;;;3.20;;
10343;SDS011;5217;43.960;10.954;2023-06-24T00:52:40;4.50;;;3.53;;
10343;SDS011;5217;43.960;10.954;2023-06-24T00:55:09;4.85;;;3.50;;
10343;SDS011;5217;43.960;10.954;2023-06-24T00:57:39;3.80;;;3.30;;
10343;SDS011;5217;43.960;10.954;2023-06-24T01:00:10;5.20;;;2.97;;
10343;SDS011;5217;43.960;10.954;2023-06-24T01:02:41;4.22;;;3.20;;
10343;SDS011;5217;43.960;10.954;2023-06-24T01:05:10;4.55;;;3.35;;
10343;SDS011;5217;43.960;10.954;2023-06-24T01:07:39;3.75;;;3.38;;
10343;SDS011;5217;43.960;10.954;2023-06-24T01:10:08;3.83;;;3.40;;
10343;SDS011;5217;43.960;10.954;2023-06-24T01:12:39;3.80;;;3.50;;
10343;SDS011;5217;43.960;10.954;2023-06-24T01:15:11;4.82;;;3.30;;
10343;SDS011;5217;43.960;10.954;2023-06-24T01:17:42;4.07;;;3.40;;
10343;SDS011;5217;43.960;10.954;2023-06-24T01:20:17;4.22;;;3.35;;
10343;SDS011;5217;43.960;10.954;2023-06-24T01:23:04;3.42;;;3.10;;
10343;SDS011;5217;43.960;10.954;2023-06-24T01:25:59;3.50;;;3.13;;
10343;SDS011;5217;43.960;10.954;2023-06-24T01:32:01;5.43;;;3.15;;
10343;SDS011;5217;43.960;10.954;2023-06-24T01:34:34;4.18;;;3.35;;
10343;SDS011;5217;43.960;10.954;2023-06-24T01:37:08;6.22;;;3.40;;
10343;SDS011;5217;43.960;10.954;2023-06-24T01:39:44;6.28;;;3.60;;
10343;SDS011;5217;43.960;10.954;2023-06-24T01:42:16;4.50;;;3.30;;
10343;SDS011;5217;43.960;10.954;2023-06-24T01:44:47;4.57;;;3.33;;
10343;SDS011;5217;43.960;10.954;2023-06-24T01:47:20;5.65;;;3.40;;
10343;SDS011;5217;43.960;10.954;2023-06-24T01:49:53;4.13;;;3.53;;
10343;SDS011;5217;43.960;10.954;2023-06-24T01:52:25;4.53;;;3.08;;
10343;SDS011;5217;43.960;10.954;2023-06-24T01:54:56;4.85;;;3.58;;
10343;SDS011;5217;43.960;10.954;2023-06-24T01:57:26;4.55;;;3.42;;
10343;SDS011;5217;43.960;10.954;2023-06-24T01:59:56;5.97;;;3.40;;
10343;SDS011;5217;43.960;10.954;2023-06-24T02:02:27;4.90;;;3.22;;
10343;SDS011;5217;43.960;10.954;2023-06-24T02:04:57;7.60;;;3.55;;
10343;SDS011;5217;43.960;10.954;2023-06-24T02:07:28;5.78;;;3.50;;
10343;SDS011;5217;43.960;10.954;2023-06-24T02:09:57;4.28;;;3.20;;
10343;SDS011;5217;43.960;10.954;2023-06-24T02:12:27;3.80;;;3.13;;
10343;SDS011;5217;43.960;10.954;2023-06-24T02:14:56;5.72;;;3.47;;
10343;SDS011;5217;43.960;10.954;2023-06-24T02:17:28;4.53;;;3.53;;
10343;SDS011;5217;43.960;10.954;2023-06-24T02:19:56;3.88;;;3.30;;
10343;SDS011;5217;43.960;10.954;2023-06-24T02:22:26;5.20;;;3.65;;
10343;SDS011;5217;43.960;10.954;2023-06-24T02:24:56;4.22;;;3.10;;
10343;SDS011;5217;43.960;10.954;2023-06-24T02:27:25;3.80;;;3.30;;
10343;SDS011;5217;43.960;10.954;2023-06-24T02:29:54;4.97;;;3.38;;
10343;SDS011;5217;43.960;10.954;2023-06-24T02:32:23;4.55;;;3.30;;
10343;SDS011;5217;43.960;10.954;2023-06-24T02:34:52;6.15;;;3.58;;
10343;SDS011;5217;43.960;10.954;2023-06-24T02:37:21;4.75;;;3.80;;
10343;SDS011;5217;43.960;10.954;2023-06-24T02:39:49;6.25;;;3.55;;
10343;SDS011;5217;43.960;10.954;2023-06-24T02:42:18;4.70;;;3.38;;
10343;SDS011;5217;43.960;10.954;2023-06-24T02:44:46;6.70;;;3.35;;
10343;SDS011;5217;43.960;10.954;2023-06-24T02:47:14;3.75;;;3.25;;
10343;SDS011;5217;43.960;10.954;2023-06-24T02:49:44;4.93;;;3.33;;
10343;SDS011;5217;43.960;10.954;2023-06-24T02:52:16;3.58;;;3.17;;
10343;SDS011;5217;43.960;10.954;2023-06-24T02:54:45;4.95;;;3.70;;
10343;SDS011;5217;43.960;10.954;2023-06-24T02:57:13;4.90;;;3.53;;
10343;SDS011;5217;43.960;10.954;2023-06-24T02:59:42;3.40;;;3.10;;
10343;SDS011;5217;43.960;10.954;2023-06-24T03:02:10;3.92;;;3.53;;
10343;SDS011;5217;43.960;10.954;2023-06-24T03:04:39;5.57;;;3.30;;
10343;SDS011;5217;43.960;10.954;2023-06-24T03:07:08;4.65;;;3.40;;
10343;SDS011;5217;43.960;10.954;2023-06-24T03:09:39;7.13;;;3.47;;
10343;SDS011;5217;43.960;10.954;2023-06-24T03:12:08;6.35;;;3.67;;
10343;SDS011;5217;43.960;10.954;2023-06-24T03:14:36;7.10;;;3.67;;
10343;SDS011;5217;43.960;10.954;2023-06-24T03:17:06;6.32;;;3.60;;
10343;SDS011;5217;43.960;10.954;2023-06-24T03:19:35;3.92;;;3.45;;
10343;SDS011;5217;43.960;10.954;2023-06-24T03:22:03;5.43;;;3.53;;
10343;SDS011;5217;43.960;10.954;2023-06-24T03:24:32;4.82;;;3.30;;
10343;SDS011;5217;43.960;10.954;2023-06-24T03:27:02;5.90;;;3.20;;
10343;SDS011;5217;43.960;10.954;2023-06-24T03:29:30;5.30;;;3.70;;
10343;SDS011;5217;43.960;10.954;2023-06-24T03:31:59;3.97;;;3.58;;
10343;SDS011;5217;43.960;10.954;2023-06-24T03:34:27;4.95;;;3.40;;
10343;SDS011;5217;43.960;10.954;2023-06-24T03:36:56;4.75;;;3.40;;
10343;SDS011;5217;43.960;10.954;2023-06-24T03:39:24;4.22;;;3.70;;
10343;SDS011;5217;43.960;10.954;2023-06-24T03:41:53;4.78;;;3.75;;
10343;SDS011;5217;43.960;10.954;2023-06-24T03:44:22;3.80;;;3.50;;
10343;SDS011;5217;43.960;10.954;2023-06-24T03:46:51;4.20;;;3.55;;
10343;SDS011;5217;43.960;10.954;2023-06-24T03:49:19;5.15;;;3.63;;
10343;SDS011;5217;43.960;10.954;2023-06-24T03:51:47;4.63;;;3.75;;
10343;SDS011;5217;43.960;10.954;2023-06-24T03:54:16;5.75;;;3.42;;
10343;SDS011;5217;43.960;10.954;2023-06-24T03:56:44;4.50;;;3.42;;
10343;SDS011;5217;43.960;10.954;2023-06-24T03:59:12;3.67;;;3.08;;
10343;SDS011;5217;43.960;10.954;2023-06-24T04:01:42;5.60;;;3.58;;
10343;SDS011;5217;43.960;10.954;2023-06-24T04:04:11;4.72;;;3.33;;
10343;SDS011;5217;43.960;10.954;2023-06-24T04:06:39;3.35;;;2.95;;
10343;SDS011;5217;43.960;10.954;2023-06-24T04:09:07;4.05;;;3.47;;
10343;SDS011;5217;43.960;10.954;2023-06-24T04:11:36;4.03;;;3.55;;
10343;SDS011;5217;43.960;10.954;2023-06-24T04:14:04;3.78;;;3.40;;
10343;SDS011;5217;43.960;10.954;2023-06-24T04:16:35;3.47;;;3.17;;
10343;SDS011;5217;43.960;10.954;2023-06-24T04:19:05;3.40;;;3.10;;
10343;SDS011;5217;43.960;10.954;2023-06-24T04:21:34;5.43;;;3.20;;
10343;SDS011;5217;43.960;10.954;2023-06-24T04:24:02;3.75;;;3.00;;
10343;SDS011;5217;43.960;10.954;2023-06-24T04:26:31;3.85;;;3.20;;
10343;SDS011;5217;43.960;10.954;2023-06-24T04:28:59;4.68;;;3.40;;
10343;SDS011;5217;43.960;10.954;2023-06-24T04:31:28;5.55;;;3.30;;
10343;SDS011;5217;43.960;10.954;2023-06-24T04:33:57;4.35;;;3.33;;
10343;SDS011;5217;43.960;10.954;2023-06-24T04:36:26;5.93;;;3.30;;
10343;SDS011;5217;43.960;10.954;2023-06-24T04:38:55;6.82;;;3.70;;
10343;SDS011;5217;43.960;10.954;2023-06-24T04:41:24;3.92;;;3.33;;
10343;SDS011;5217;43.960;10.954;2023-06-24T04:43:52;5.20;;;3.42;;
10343;SDS011;5217;43.960;10.954;2023-06-24T04:46:20;7.00;;;3.40;;
10343;SDS011;5217;43.960;10.954;2023-06-24T04:48:49;4.82;;;3.38;;
10343;SDS011;5217;43.960;10.954;2023-06-24T04:51:17;4.40;;;3.55;;
10343;SDS011;5217;43.960;10.954;2023-06-24T04:53:47;4.15;;;3.40;;
10343;SDS011;5217;43.960;10.954;2023-06-24T04:56:15;5.05;;;3.00;;
10343;SDS011;5217;43.960;10.954;2023-06-24T04:58:43;3.60;;;3.30;;
10343;SDS011;5217;43.960;10.954;2023-06-24T05:01:12;3.58;;;3.28;;
10343;SDS011;5217;43.960;10.954;2023-06-24T05:03:41;3.78;;;3.17;;
10343;SDS011;5217;43.960;10.954;2023-06-24T05:06:09;3.92;;;3.30;;
10343;SDS011;5217;43.960;10.954;2023-06-24T05:08:37;3.65;;;3.35;;
10343;SDS011;5217;43.960;10.954;2023-06-24T05:11:07;5.18;;;3.28;;
10343;SDS011;5217;43.960;10.954;2023-06-24T05:13:35;3.92;;;3.03;;
10343;SDS011;5217;43.960;10.954;2023-06-24T05:16:05;4.28;;;3.53;;
10343;SDS011;5217;43.960;10.954;2023-06-24T05:18:33;4.47;;;3.38;;
10343;SDS011;5217;43.960;10.954;2023-06-24T05:21:02;7.07;;;3.38;;
10343;SDS011;5217;43.960;10.954;2023-06-24T05:23:30;4.55;;;3.53;;
10343;SDS011;5217;43.960;10.954;2023-06-24T05:25:59;4.60;;;3.30;;
10343;SDS011;5217;43.960;10.954;2023-06-24T05:28:28;6.72;;;3.13;;
10343;SDS011;5217;43.960;10.954;2023-06-24T05:30:57;8.70;;;3.42;;
10343;SDS011;5217;43.960;10.954;2023-06-24T05:33:26;4.85;;;3.22;;
10343;SDS011;5217;43.960;10.954;2023-06-24T05:35:54;3.47;;;3.15;;
10343;SDS011;5217;43.960;10.954;2023-06-24T05:38:22;3.60;;;3.22;;
10343;SDS011;5217;43.960;10.954;2023-06-24T05:40:51;3.33;;;3.00;;
10343;SDS011;5217;43.960;10.954;2023-06-24T05:43:19;4.45;;;3.00;;
10343;SDS011;5217;43.960;10.954;2023-06-24T05:45:49;4.10;;;3.22;;
10343;SDS011;5217;43.960;10.954;2023-06-24T05:48:17;3.90;;;3.50;;
10343;SDS011;5217;43.960;10.954;2023-06-24T05:50:46;4.13;;;3.13;;
10343;SDS011;5217;43.960;10.954;2023-06-24T05:53:15;3.35;;;2.90;;
10343;SDS011;5217;43.960;10.954;2023-06-24T05:55:43;3.33;;;3.00;;
10343;SDS011;5217;43.960;10.954;2023-06-24T05:58:11;3.22;;;2.80;;
10343;SDS011;5217;43.960;10.954;2023-06-24T06:00:40;3.50;;;3.08;;
10343;SDS011;5217;43.960;10.954;2023-06-24T06:03:10;2.92;;;2.70;;
10343;SDS011;5217;43.960;10.954;2023-06-24T06:05:38;3.55;;;2.92;;
10343;SDS011;5217;43.960;10.954;2023-06-24T06:08:06;5.80;;;3.20;;
10343;SDS011;5217;43.960;10.954;2023-06-24T06:10:35;3.70;;;3.28;;
10343;SDS011;5217;43.960;10.954;2023-06-24T06:13:03;4.60;;;3.13;;
10343;SDS011;5217;43.960;10.954;2023-06-24T06:15:31;3.33;;;3.03;;
10343;SDS011;5217;43.960;10.954;2023-06-24T06:18:00;4.40;;;3.10;;
10343;SDS011;5217;43.960;10.954;2023-06-24T06:20:30;4.20;;;3.08;;
10343;SDS011;5217;43.960;10.954;2023-06-24T06:22:58;3.55;;;3.10;;
10343;SDS011;5217;43.960;10.954;2023-06-24T06:25:27;3.92;;;3.20;;
10343;SDS011;5217;43.960;10.954;2023-06-24T06:27:55;3.72;;;3.33;;
10343;SDS011;5217;43.960;10.954;2023-06-24T06:30:24;5.38;;;2.90;;
10343;SDS011;5217;43.960;10.954;2023-06-24T06:32:52;4.88;;;3.22;;
10343;SDS011;5217;43.960;10.954;2023-06-24T06:35:21;4.43;;;3.15;;
10343;SDS011;5217;43.960;10.954;2023-06-24T06:37:51;4.05;;;3.45;;
10343;SDS011;5217;43.960;10.954;2023-06-24T06:40:22;3.78;;;3.03;;
10343;SDS011;5217;43.960;10.954;2023-06-24T06:42:51;5.03;;;3.75;;
10343;SDS011;5217;43.960;10.954;2023-06-24T06:45:19;3.53;;;3.03;;
10343;SDS011;5217;43.960;10.954;2023-06-24T06:47:48;4.13;;;3.22;;
10343;SDS011;5217;43.960;10.954;2023-06-24T06:50:17;3.17;;;2.70;;
10343;SDS011;5217;43.960;10.954;2023-06-24T06:52:46;3.47;;;3.17;;
10343;SDS011;5217;43.960;10.954;2023-06-24T06:55:16;3.33;;;3.03;;
10343;SDS011;5217;43.960;10.954;2023-06-24T06:57:44;4.07;;;3.22;;
10343;SDS011;5217;43.960;10.954;2023-06-24T07:00:13;3.25;;;2.85;;
10343;SDS011;5217;43.960;10.954;2023-06-24T07:02:41;3.72;;;3.42;;
10343;SDS011;5217;43.960;10.954;2023-06-24T07:05:10;2.90;;;2.70;;
10343;SDS011;5217;43.960;10.954;2023-06-24T07:07:38;4.60;;;3.08;;
10343;SDS011;5217;43.960;10.954;2023-06-24T07:10:07;4.07;;;2.92;;
10343;SDS011;5217;43.960;10.954;2023-06-24T07:12:37;3.55;;;2.90;;
10343;SDS011;5217;43.960;10.954;2023-06-24T07:15:06;3.83;;;2.90;;
10343;SDS011;5217;43.960;10.954;2023-06-24T07:17:38;4.78;;;2.80;;
10343;SDS011;5217;43.960;10.954;2023-06-24T07:20:08;3.50;;;3.20;;
10343;SDS011;5217;43.960;10.954;2023-06-24T07:22:37;3.53;;;3.20;;
10343;SDS011;5217;43.960;10.954;2023-06-24T07:25:05;4.43;;;3.50;;
10343;SDS011;5217;43.960;10.954;2023-06-24T07:27:34;3.70;;;3.20;;
10343;SDS011;5217;43.960;10.954;2023-06-24T07:30:05;3.65;;;3.10;;
10343;SDS011;5217;43.960;10.954;2023-06-24T07:32:35;4.10;;;3.10;;
10343;SDS011;5217;43.960;10.954;2023-06-24T07:35:04;3.72;;;3.28;;
10343;SDS011;5217;43.960;10.954;2023-06-24T07:37:34;3.22;;;2.88;;
10343;SDS011;5217;43.960;10.954;2023-06-24T07:40:03;3.40;;;3.10;;
10343;SDS011;5217;43.960;10.954;2023-06-24T07:42:32;4.30;;;3.05;;
10343;SDS011;5217;43.960;10.954;2023-06-24T07:45:01;3.63;;;2.83;;
10343;SDS011;5217;43.960;10.954;2023-06-24T07:47:31;3.30;;;3.00;;
10343;SDS011;5217;43.960;10.954;2023-06-24T07:50:00;3.35;;;2.90;;
10343;SDS011;5217;43.960;10.954;2023-06-24T07:52:29;3.95;;;2.80;;
10343;SDS011;5217;43.960;10.954;2023-06-24T07:54:58;3.67;;;2.83;;
10343;SDS011;5217;43.960;10.954;2023-06-24T07:57:26;4.25;;;3.25;;
10343;SDS011;5217;43.960;10.954;2023-06-24T07:59:55;5.55;;;3.20;;
10343;SDS011;5217;43.960;10.954;2023-06-24T08:02:23;3.72;;;3.08;;
10343;SDS011;5217;43.960;10.954;2023-06-24T08:04:54;4.15;;;3.25;;
10343;SDS011;5217;43.960;10.954;2023-06-24T08:07:23;4.55;;;2.95;;
10343;SDS011;5217;43.960;10.954;2023-06-24T08:09:51;5.10;;;3.22;;
10343;SDS011;5217;43.960;10.954;2023-06-24T08:12:19;3.45;;;3.15;;
10343;SDS011;5217;43.960;10.954;2023-06-24T08:14:48;4.72;;;2.85;;
10343;SDS011;5217;43.960;10.954;2023-06-24T08:17:16;3.20;;;2.90;;
10343;SDS011;5217;43.960;10.954;2023-06-24T08:19:45;3.13;;;2.70;;
10343;SDS011;5217;43.960;10.954;2023-06-24T08:22:15;3.30;;;2.92;;
10343;SDS011;5217;43.960;10.954;2023-06-24T08:24:43;3.35;;;2.90;;
10343;SDS011;5217;43.960;10.954;2023-06-24T08:27:12;4.20;;;2.83;;
10343;SDS011;5217;43.960;10.954;2023-06-24T08:29:40;3.85;;;3.08;;
10343;SDS011;5217;43.960;10.954;2023-06-24T08:32:08;3.90;;;2.90;;
10343;SDS011;5217;43.960;10.954;2023-06-24T08:34:37;2.78;;;2.55;;
10343;SDS011;5217;43.960;10.954;2023-06-24T08:37:05;4.35;;;3.00;;
10343;SDS011;5217;43.960;10.954;2023-06-24T08:39:35;3.05;;;2.72;;
10343;SDS011;5217;43.960;10.954;2023-06-24T08:42:05;5.07;;;2.95;;
10343;SDS011;5217;43.960;10.954;2023-06-24T08:44:34;4.75;;;3.05;;
10343;SDS011;5217;43.960;10.954;2023-06-24T08:47:02;3.15;;;2.85;;
10343;SDS011;5217;43.960;10.954;2023-06-24T08:49:31;4.22;;;2.80;;
10343;SDS011;5217;43.960;10.954;2023-06-24T08:52:02;3.10;;;2.80;;
10343;SDS011;5217;43.960;10.954;2023-06-24T08:54:34;2.88;;;2.58;;
10343;SDS011;5217;43.960;10.954;2023-06-24T08:57:05;3.15;;;2.85;;
10343;SDS011;5217;43.960;10.954;2023-06-24T08:59:36;2.90;;;2.50;;
10343;SDS011;5217;43.960;10.954;2023-06-24T09:02:05;3.10;;;2.78;;
10343;SDS011;5217;43.960;10.954;2023-06-24T09:04:34;2.72;;;2.10;;
10343;SDS011;5217;43.960;10.954;2023-06-24T09:07:02;4.00;;;2.53;;
10343;SDS011;5217;43.960;10.954;2023-06-24T09:09:34;2.40;;;2.20;;
10343;SDS011;5217;43.960;10.954;2023-06-24T09:12:12;2.40;;;2.20;;
10343;SDS011;5217;43.960;10.954;2023-06-24T09:14:42;3.17;;;2.30;;
10343;SDS011;5217;43.960;10.954;2023-06-24T09:17:16;2.20;;;2.00;;
10343;SDS011;5217;43.960;10.954;2023-06-24T09:19:44;2.63;;;2.25;;
10343;SDS011;5217;43.960;10.954;2023-06-24T09:22:13;3.92;;;2.28;;
10343;SDS011;5217;43.960;10.954;2023-06-24T09:24:45;2.58;;;2.13;;
10343;SDS011;5217;43.960;10.954;2023-06-24T09:27:15;2.22;;;2.13;;
10343;SDS011;5217;43.960;10.954;2023-06-24T09:29:46;2.45;;;2.15;;
10343;SDS011;5217;43.960;10.954;2023-06-24T09:32:15;2.50;;;2.30;;
10343;SDS011;5217;43.960;10.954;2023-06-24T09:34:43;2.33;;;2.13;;
10343;SDS011;5217;43.960;10.954;2023-06-24T09:37:12;2.47;;;2.28;;
10343;SDS011;5217;43.960;10.954;2023-06-24T09:39:51;1.90;;;1.80;;
10343;SDS011;5217;43.960;10.954;2023-06-24T09:42:20;2.60;;;2.30;;
10343;SDS011;5217;43.960;10.954;2023-06-24T09:44:53;2.22;;;2.00;;
10343;SDS011;5217;43.960;10.954;2023-06-24T09:47:21;3.67;;;2.03;;
10343;SDS011;5217;43.960;10.954;2023-06-24T09:49:52;2.40;;;2.20;;
10343;SDS011;5217;43.960;10.954;2023-06-24T09:52:21;2.42;;;2.10;;
10343;SDS011;5217;43.960;10.954;2023-06-24T09:54:51;2.40;;;2.20;;
10343;SDS011;5217;43.960;10.954;2023-06-24T09:57:23;2.28;;;2.08;;
10343;SDS011;5217;43.960;10.954;2023-06-24T09:59:56;2.50;;;2.30;;
10343;SDS011;5217;43.960;10.954;2023-06-24T10:02:26;2.45;;;2.25;;
10343;SDS011;5217;43.960;10.954;2023-06-24T10:04:56;2.33;;;2.13;;
10343;SDS011;5217;43.960;10.954;2023-06-24T10:07:27;3.58;;;2.50;;
10343;SDS011;5217;43.960;10.954;2023-06-24T10:09:57;2.33;;;2.15;;
10343;SDS011;5217;43.960;10.954;2023-06-24T10:12:26;2.30;;;2.10;;
10343;SDS011;5217;43.960;10.954;2023-06-24T10:14:55;2.50;;;2.30;;
10343;SDS011;5217;43.960;10.954;2023-06-24T10:17:23;2.50;;;2.15;;
10343;SDS011;5217;43.960;10.954;2023-06-24T10:19:52;2.05;;;1.95;;
10343;SDS011;5217;43.960;10.954;2023-06-24T10:22:21;2.50;;;2.30;;
10343;SDS011;5217;43.960;10.954;2023-06-24T10:24:52;3.00;;;2.25;;
10343;SDS011;5217;43.960;10.954;2023-06-24T10:27:22;3.97;;;2.50;;
10343;SDS011;5217;43.960;10.954;2023-06-24T10:29:52;2.88;;;2.20;;
10343;SDS011;5217;43.960;10.954;2023-06-24T10:32:23;2.65;;;2.25;;
10343;SDS011;5217;43.960;10.954;2023-06-24T10:34:54;3.63;;;2.15;;
10343;SDS011;5217;43.960;10.954;2023-06-24T10:37:24;4.57;;;2.47;;
10343;SDS011;5217;43.960;10.954;2023-06-24T10:39:53;2.70;;;2.30;;
10343;SDS011;5217;43.960;10.954;2023-06-24T10:42:27;2.45;;;2.20;;
10343;SDS011;5217;43.960;10.954;2023-06-24T10:45:01;3.05;;;2.10;;
10343;SDS011;5217;43.960;10.954;2023-06-24T10:47:42;2.60;;;2.40;;
10343;SDS011;5217;43.960;10.954;2023-06-24T10:50:12;2.33;;;2.00;;
10343;SDS011;5217;43.960;10.954;2023-06-24T10:52:41;2.45;;;2.25;;
10343;SDS011;5217;43.960;10.954;2023-06-24T10:55:13;2.28;;;2.08;;
10343;SDS011;5217;43.960;10.954;2023-06-24T10:57:44;2.60;;;2.40;;
10343;SDS011;5217;43.960;10.954;2023-06-24T11:00:13;2.65;;;2.40;;
10343;SDS011;5217;43.960;10.954;2023-06-24T11:02:43;2.97;;;2.20;;
10343;SDS011;5217;43.960;10.954;2023-06-24T11:05:12;3.83;;;2.78;;
10343;SDS011;5217;43.960;10.954;2023-06-24T11:07:41;4.03;;;2.33;;
10343;SDS011;5217;43.960;10.954;2023-06-24T11:10:10;2.38;;;2.17;;
10343;SDS011;5217;43.960;10.954;2023-06-24T11:12:40;3.30;;;2.25;;
10343;SDS011;5217;43.960;10.954;2023-06-24T11:15:12;2.72;;;2.40;;
10343;SDS011;5217;43.960;10.954;2023-06-24T11:17:41;2.70;;;2.30;;
10343;SDS011;5217;43.960;10.954;2023-06-24T11:20:10;2.65;;;2.45;;
10343;SDS011;5217;43.960;10.954;2023-06-24T11:22:40;2.75;;;2.45;;
10343;SDS011;5217;43.960;10.954;2023-06-24T11:25:14;3.05;;;2.55;;
10343;SDS011;5217;43.960;10.954;2023-06-24T11:27:43;2.63;;;2.42;;
10343;SDS011;5217;43.960;10.954;2023-06-24T11:30:14;3.67;;;2.45;;
10343;SDS011;5217;43.960;10.954;2023-06-24T11:32:44;5.05;;;2.47;;
10343;SDS011;5217;43.960;10.954;2023-06-24T11:35:14;4.10;;;2.63;;
10343;SDS011;5217;43.960;10.954;2023-06-24T11:37:44;3.35;;;2.33;;
10343;SDS011;5217;43.960;10.954;2023-06-24T11:40:13;3.55;;;2.55;;
10343;SDS011;5217;43.960;10.954;2023-06-24T11:42:46;2.53;;;2.28;;
10343;SDS011;5217;43.960;10.954;2023-06-24T11:45:20;2.50;;;2.30;;
10343;SDS011;5217;43.960;10.954;2023-06-24T11:47:49;2.92;;;2.50;;
10343;SDS011;5217;43.960;10.954;2023-06-24T11:50:18;3.17;;;2.10;;
10343;SDS011;5217;43.960;10.954;2023-06-24T11:52:53;3.13;;;2.55;;
10343;SDS011;5217;43.960;10.954;2023-06-24T11:55:22;2.28;;;2.08;;
10343;SDS011;5217;43.960;10.954;2023-06-24T11:57:52;2.38;;;2.17;;
10343;SDS011;5217;43.960;10.954;2023-06-24T12:00:24;2.50;;;2.30;;
10343;SDS011;5217;43.960;10.954;2023-06-24T12:02:54;2.47;;;2.20;;
10343;SDS011;5217;43.960;10.954;2023-06-24T12:05:24;2.50;;;2.30;;
10343;SDS011;5217;43.960;10.954;2023-06-24T12:07:55;4.38;;;2.67;;
10343;SDS011;5217;43.960;10.954;2023-06-24T12:10:25;2.50;;;2.30;;
10343;SDS011;5217;43.960;10.954;2023-06-24T12:12:56;2.40;;;2.20;;
10343;SDS011;5217;43.960;10.954;2023-06-24T12:15:26;3.42;;;2.10;;
10343;SDS011;5217;43.960;10.954;2023-06-24T12:17:55;3.03;;;2.55;;
10343;SDS011;5217;43.960;10.954;2023-06-24T12:20:24;2.75;;;2.00;;
10343;SDS011;5217;43.960;10.954;2023-06-24T12:23:01;2.58;;;2.38;;
10343;SDS011;5217;43.960;10.954;2023-06-24T12:25:31;2.83;;;2.50;;
10343;SDS011;5217;43.960;10.954;2023-06-24T12:28:00;2.55;;;2.17;;
10343;SDS011;5217;43.960;10.954;2023-06-24T12:30:30;2.28;;;2.08;;
10343;SDS011;5217;43.960;10.954;2023-06-24T12:32:58;2.20;;;2.00;;
10343;SDS011;5217;43.960;10.954;2023-06-24T12:35:26;2.30;;;2.10;;
10343;SDS011;5217;43.960;10.954;2023-06-24T12:37:55;2.30;;;2.10;;
10343;SDS011;5217;43.960;10.954;2023-06-24T12:40:23;2.88;;;2.28;;
10343;SDS011;5217;43.960;10.954;2023-06-24T12:42:52;2.97;;;2.40;;
10343;SDS011;5217;43.960;10.954;2023-06-24T12:45:20;2.15;;;2.03;;
10343;SDS011;5217;43.960;10.954;2023-06-24T12:47:50;3.50;;;2.35;;
10343;SDS011;5217;43.960;10.954;2023-06-24T12:50:19;2.70;;;2.50;;
10343;SDS011;5217;43.960;10.954;2023-06-24T12:52:47;3.33;;;2.47;;
10343;SDS011;5217;43.960;10.954;2023-06-24T12:55:15;2.88;;;2.47;;
10343;SDS011;5217;43.960;10.954;2023-06-24T12:57:44;2.55;;;2.35;;
10343;SDS011;5217;43.960;10.954;2023-06-24T13:00:13;2.85;;;2.25;;
10343;SDS011;5217;43.960;10.954;2023-06-24T13:02:43;2.75;;;2.40;;
10343;SDS011;5217;43.960;10.954;2023-06-24T13:05:13;2.80;;;2.60;;
10343;SDS011;5217;43.960;10.954;2023-06-24T13:07:42;3.15;;;2.30;;
10343;SDS011;5217;43.960;10.954;2023-06-24T13:10:10;2.95;;;2.28;;
10343;SDS011;5217;43.960;10.954;2023-06-24T13:12:39;2.38;;;2.17;;
10343;SDS011;5217;43.960;10.954;2023-06-24T13:15:08;2.25;;;2.10;;
10343;SDS011;5217;43.960;10.954;2023-06-24T13:17:37;2.40;;;2.20;;
10343;SDS011;5217;43.960;10.954;2023-06-24T13:20:07;2.13;;;1.90;;
10343;SDS011;5217;43.960;10.954;2023-06-24T13:22:37;2.53;;;2.15;;
10343;SDS011;5217;43.960;10.954;2023-06-24T13:25:06;2.13;;;1.90;;
10343;SDS011;5217;43.960;10.954;2023-06-24T13:27:34;2.30;;;2.10;;
10343;SDS011;5217;43.960;10.954;2023-06-24T13:30:07;2.35;;;2.15;;
10343;SDS011;5217;43.960;10.954;2023-06-24T13:32:36;2.47;;;1.83;;
10343;SDS011;5217;43.960;10.954;2023-06-24T13:35:05;2.30;;;2.10;;
10343;SDS011;5217;43.960;10.954;2023-06-24T13:37:34;2.50;;;2.30;;
10343;SDS011;5217;43.960;10.954;2023-06-24T13:40:06;2.95;;;2.20;;
10343;SDS011;5217;43.960;10.954;2023-06-24T13:42:35;2.22;;;2.03;;
10343;SDS011;5217;43.960;10.954;2023-06-24T13:45:08;2.22;;;2.13;;
10343;SDS011;5217;43.960;10.954;2023-06-24T13:47:37;1.98;;;1.88;;
10343;SDS011;5217;43.960;10.954;2023-06-24T13:50:08;3.35;;;2.05;;
10343;SDS011;5217;43.960;10.954;2023-06-24T13:52:38;2.33;;;2.00;;
10343;SDS011;5217;43.960;10.954;2023-06-24T13:55:07;2.13;;;2.03;;
10343;SDS011;5217;43.960;10.954;2023-06-24T13:57:36;2.22;;;2.03;;
10343;SDS011;5217;43.960;10.954;2023-06-24T14:00:05;2.67;;;2.00;;
10343;SDS011;5217;43.960;10.954;2023-06-24T14:02:35;2.00;;;1.80;;
10343;SDS011;5217;43.960;10.954;2023-06-24T14:05:04;1.83;;;1.70;;
10343;SDS011;5217;43.960;10.954;2023-06-24T14:07:33;2.05;;;1.90;;
10343;SDS011;5217;43.960;10.954;2023-06-24T14:10:04;2.47;;;2.08;;
10343;SDS011;5217;43.960;10.954;2023-06-24T14:12:34;1.88;;;1.75;;
10343;SDS011;5217;43.960;10.954;2023-06-24T14:15:02;2.15;;;1.92;;
10343;SDS011;5217;43.960;10.954;2023-06-24T14:17:31;2.10;;;2.00;;
10343;SDS011;5217;43.960;10.954;2023-06-24T14:20:00;2.00;;;1.80;;
10343;SDS011;5217;43.960;10.954;2023-06-24T14:22:29;1.80;;;1.70;;
10343;SDS011;5217;43.960;10.954;2023-06-24T14:24:58;1.85;;;1.75;;
10343;SDS011;5217;43.960;10.954;2023-06-24T14:27:28;3.90;;;1.85;;
10343;SDS011;5217;43.960;10.954;2023-06-24T14:29:56;2.30;;;1.88;;
10343;SDS011;5217;43.960;10.954;2023-06-24T14:32:24;2.03;;;1.77;;
10343;SDS011;5217;43.960;10.954;2023-06-24T14:34:54;2.03;;;1.83;;
10343;SDS011;5217;43.960;10.954;2023-06-24T14:37:22;1.90;;;1.55;;
10343;SDS011;5217;43.960;10.954;2023-06-24T14:39:50;1.90;;;1.70;;
10343;SDS011;5217;43.960;10.954;2023-06-24T14:42:19;1.90;;;1.70;;
10343;SDS011;5217;43.960;10.954;2023-06-24T14:44:48;1.85;;;1.67;;
10343;SDS011;5217;43.960;10.954;2023-06-24T14:47:17;2.05;;;1.60;;
10343;SDS011;5217;43.960;10.954;2023-06-24T14:49:45;1.50;;;1.40;;
10343;SDS011;5217;43.960;10.954;2023-06-24T14:52:14;1.50;;;1.40;;
10343;SDS011;5217;43.960;10.954;2023-06-24T14:54:42;1.90;;;1.40;;
10343;SDS011;5217;43.960;10.954;2023-06-24T14:57:10;1.25;;;1.20;;
10343;SDS011;5217;43.960;10.954;2023-06-24T14:59:38;1.63;;;1.40;;
10343;SDS011;5217;43.960;10.954;2023-06-24T15:02:08;1.40;;;1.30;;
10343;SDS011;5217;43.960;10.954;2023-06-24T15:04:37;1.83;;;1.48;;